createdAt,value
2018-04-23T00:02:55.874Z,13.80
2018-04-23T00:05:58.321Z,14.00
2018-04-23T00:09:00.773Z,14.10
2018-04-23T00:12:03.217Z,14.10
2018-04-23T00:15:05.667Z,14.10
2018-04-23T00:18:08.124Z,14.10
2018-04-23T00:21:10.609Z,14.20
2018-04-23T00:24:13.058Z,14.20
2018-04-23T00:27:15.514Z,14.20
2018-04-23T00:30:18.726Z,14.20
2018-04-23T00:33:21.178Z,14.20
2018-04-23T00:36:24.388Z,14.20
2018-04-23T00:39:26.834Z,14.20
2018-04-23T00:42:29.281Z,14.20
2018-04-23T00:45:48.530Z,14.20
2018-04-23T00:48:50.978Z,14.20
2018-04-23T00:51:54.208Z,14.20
2018-04-23T00:54:56.649Z,14.20
2018-04-23T00:57:59.884Z,14.10
2018-04-23T01:01:02.351Z,14.10
2018-04-23T01:04:04.806Z,14.10
2018-04-23T01:07:12.237Z,14.20
2018-04-23T01:10:14.673Z,14.20
2018-04-23T01:13:17.127Z,14.10
2018-04-23T01:16:19.566Z,14.10
2018-04-23T01:19:22.038Z,14.00
2018-04-23T01:22:24.494Z,14.00
2018-04-23T01:25:26.929Z,14.00
2018-04-23T01:28:29.385Z,14.10
2018-04-23T01:31:31.829Z,14.10
2018-04-23T01:34:34.277Z,14.10
2018-04-23T01:37:37.493Z,14.20
2018-04-23T01:40:39.937Z,14.20
2018-04-23T01:43:42.386Z,14.10
2018-04-23T01:46:44.830Z,14.20
2018-04-23T01:49:47.278Z,14.20
2018-04-23T01:52:50.497Z,14.10
2018-04-23T01:55:52.946Z,14.10
2018-04-23T01:58:56.169Z,14.20
2018-04-23T02:01:58.625Z,14.20
2018-04-23T02:05:01.845Z,14.20
2018-04-23T02:08:04.293Z,14.20
2018-04-23T02:11:07.509Z,14.20
2018-04-23T02:14:09.970Z,14.20
2018-04-23T02:17:12.414Z,14.20
2018-04-23T02:20:14.863Z,14.30
2018-04-23T02:23:17.314Z,14.40
2018-04-23T02:26:19.756Z,14.50
2018-04-23T02:29:22.981Z,14.60
2018-04-23T02:32:25.450Z,14.60
2018-04-23T02:35:27.885Z,14.60
2018-04-23T02:38:30.349Z,14.70
2018-04-23T02:41:32.800Z,14.70
2018-04-23T02:44:35.262Z,14.70
2018-04-23T02:47:37.713Z,14.80
2018-04-23T02:50:40.921Z,14.80
2018-04-23T02:53:43.374Z,14.80
2018-04-23T02:56:47.325Z,14.80
2018-04-23T02:59:49.787Z,14.80
2018-04-23T03:02:52.245Z,14.90
2018-04-23T03:05:54.697Z,15.00
2018-04-23T03:08:57.150Z,14.90
2018-04-23T03:11:59.606Z,14.80
2018-04-23T03:15:02.066Z,14.60
2018-04-23T03:18:05.289Z,14.50
2018-04-23T03:21:07.750Z,14.50
2018-04-23T03:24:10.201Z,14.50
2018-04-23T03:27:12.663Z,14.60
2018-04-23T03:30:15.117Z,14.50
2018-04-23T03:33:17.585Z,14.50
2018-04-23T03:36:20.038Z,14.40
2018-04-23T03:39:22.498Z,14.40
2018-04-23T03:42:25.721Z,14.30
2018-04-23T03:45:28.187Z,14.30
2018-04-23T03:48:30.629Z,14.40
2018-04-23T03:51:33.856Z,14.50
2018-04-23T03:54:36.310Z,14.40
2018-04-23T03:57:39.570Z,14.50
2018-04-23T04:00:41.969Z,14.50
2018-04-23T04:03:44.458Z,14.60
2018-04-23T04:06:47.682Z,14.50
2018-04-23T04:09:50.131Z,14.50
2018-04-23T04:13:05.282Z,14.50
2018-04-23T04:16:19.579Z,14.50
2018-04-23T04:19:22.038Z,14.50
2018-04-23T04:22:25.254Z,14.50
2018-04-23T04:25:27.705Z,14.40
2018-04-23T04:28:31.109Z,14.50
2018-04-23T04:31:33.509Z,14.50
2018-04-23T04:34:35.953Z,14.50
2018-04-23T04:37:39.178Z,14.60
2018-04-23T04:40:41.650Z,14.60
2018-04-23T04:43:44.104Z,14.70
2018-04-23T04:46:47.339Z,14.70
2018-04-23T04:49:49.806Z,14.70
2018-04-23T04:52:52.253Z,14.70
2018-04-23T04:55:55.481Z,14.70
2018-04-23T04:58:57.977Z,14.70
2018-04-23T05:02:00.386Z,14.70
2018-04-23T05:05:02.829Z,14.70
2018-04-23T05:08:05.277Z,14.70
2018-04-23T05:11:07.730Z,14.80
2018-04-23T05:14:10.949Z,14.80
2018-04-23T05:17:13.397Z,14.80
2018-04-23T05:20:16.621Z,14.90
2018-04-23T05:23:19.074Z,14.90
2018-04-23T05:26:22.298Z,15.10
2018-04-23T05:29:24.765Z,15.10
2018-04-23T05:32:27.213Z,15.30
2018-04-23T05:35:30.443Z,15.30
2018-04-23T05:38:32.934Z,15.30
2018-04-23T05:41:35.396Z,15.30
2018-04-23T05:44:37.859Z,15.30
2018-04-23T05:47:40.306Z,15.40
2018-04-23T05:50:42.761Z,15.50
2018-04-23T05:53:45.210Z,15.60
2018-04-23T05:56:47.673Z,15.60
2018-04-23T05:59:50.132Z,15.60
2018-04-23T06:02:53.345Z,15.60
2018-04-23T06:05:55.806Z,15.50
2018-04-23T06:08:58.259Z,15.50
2018-04-23T06:12:00.750Z,15.50
2018-04-23T06:15:04.019Z,15.40
2018-04-23T06:18:06.471Z,15.40
2018-04-23T06:21:08.927Z,15.40
2018-04-23T06:24:11.377Z,15.30
2018-04-23T06:27:14.594Z,15.20
2018-04-23T06:30:17.049Z,15.20
2018-04-23T06:33:19.497Z,15.20
2018-04-23T06:36:21.954Z,15.20
2018-04-23T06:39:24.401Z,15.30
2018-04-23T06:42:26.869Z,15.40
2018-04-23T06:45:29.330Z,15.50
2018-04-23T06:48:35.977Z,15.80
2018-04-23T06:51:39.946Z,15.80
2018-04-23T06:54:42.410Z,15.80
2018-04-23T06:57:44.853Z,15.90
2018-04-23T07:00:48.082Z,15.90
2018-04-23T07:03:50.534Z,15.80
2018-04-23T07:06:53.761Z,15.70
2018-04-23T07:09:56.229Z,15.70
2018-04-23T07:12:58.679Z,15.60
2018-04-23T07:16:01.900Z,15.40
2018-04-23T07:19:04.349Z,15.40
2018-04-23T07:22:07.569Z,15.40
2018-04-23T07:25:18.482Z,15.40
2018-04-23T07:28:20.933Z,15.40
2018-04-23T07:31:23.398Z,15.40
2018-04-23T07:34:25.845Z,15.40
2018-04-23T07:37:29.070Z,15.60
2018-04-23T07:40:31.521Z,15.60
2018-04-23T07:43:34.867Z,15.70
2018-04-23T07:46:37.330Z,15.70
2018-04-23T07:49:39.773Z,15.90
2018-04-23T07:52:42.999Z,16.60
2018-04-23T07:55:45.462Z,16.60
2018-04-23T07:58:47.910Z,17.60
2018-04-23T08:01:50.370Z,18.40
2018-04-23T08:04:52.823Z,19.20
2018-04-23T08:07:55.286Z,20.20
2018-04-23T08:10:57.750Z,21.40
2018-04-23T08:14:00.199Z,21.80
2018-04-23T08:17:02.658Z,22.50
2018-04-23T08:20:05.113Z,23.20
2018-04-23T08:23:07.566Z,23.10
2018-04-23T08:26:10.018Z,22.70
2018-04-23T08:29:12.458Z,22.80
2018-04-23T08:32:14.909Z,23.00
2018-04-23T08:35:17.366Z,23.00
2018-04-23T08:38:19.819Z,23.10
2018-04-23T08:41:26.885Z,22.80
2018-04-23T08:44:29.330Z,22.70
2018-04-23T08:47:31.786Z,22.50
2018-04-23T08:50:34.250Z,21.90
2018-04-23T08:53:36.749Z,21.10
2018-04-23T08:56:39.209Z,20.60
2018-04-23T08:59:41.654Z,20.20
2018-04-23T09:02:44.871Z,19.70
2018-04-23T09:05:47.326Z,19.70
2018-04-23T09:08:50.538Z,20.50
2018-04-23T09:12:01.153Z,20.40
2018-04-23T09:15:03.601Z,20.90
2018-04-23T09:18:06.058Z,21.00
2018-04-23T09:21:08.514Z,20.90
2018-04-23T09:24:11.729Z,21.20
2018-04-23T09:27:18.382Z,21.20
2018-04-23T09:30:20.829Z,21.20
2018-04-23T09:33:23.290Z,21.40
2018-04-23T09:36:25.747Z,21.50
2018-04-23T09:39:28.189Z,21.40
2018-04-23T09:42:31.477Z,21.10
2018-04-23T09:45:33.881Z,21.10
2018-04-23T09:48:37.094Z,20.80
2018-04-23T09:51:39.555Z,20.80
2018-04-23T09:54:42.009Z,20.60
2018-04-23T09:57:44.461Z,20.40
2018-04-23T10:00:46.921Z,20.30
2018-04-23T10:03:51.197Z,20.10
2018-04-23T10:06:54.419Z,19.70
2018-04-23T10:09:56.872Z,19.60
2018-04-23T10:12:59.331Z,19.50
2018-04-23T10:16:02.555Z,19.00
2018-04-23T10:19:04.997Z,19.00
2018-04-23T10:22:07.457Z,18.90
2018-04-23T10:25:09.910Z,18.90
2018-04-23T10:28:12.369Z,18.90
2018-04-23T10:31:14.831Z,19.10
2018-04-23T10:34:17.277Z,19.30
2018-04-23T10:37:20.509Z,19.20
2018-04-23T10:40:22.953Z,19.20
2018-04-23T10:43:25.406Z,19.20
2018-04-23T10:46:27.862Z,19.10
2018-04-23T10:49:30.314Z,19.20
2018-04-23T10:52:32.775Z,19.40
2018-04-23T10:55:35.997Z,19.80
2018-04-23T10:58:38.461Z,19.80
2018-04-23T11:01:40.914Z,20.00
2018-04-23T11:04:44.133Z,20.20
2018-04-23T11:07:46.589Z,20.20
2018-04-23T11:10:49.805Z,19.60
2018-04-23T11:13:52.266Z,19.60
2018-04-23T11:16:55.485Z,19.50
2018-04-23T11:19:57.934Z,19.40
2018-04-23T11:23:01.159Z,19.40
2018-04-23T11:26:03.614Z,19.40
2018-04-23T11:29:06.063Z,19.50
2018-04-23T11:32:08.518Z,19.70
2018-04-23T11:35:10.969Z,19.80
2018-04-23T11:38:13.430Z,19.80
2018-04-23T11:41:15.899Z,19.70
2018-04-23T11:44:18.342Z,19.60
2018-04-23T11:47:20.806Z,19.50
2018-04-23T11:50:23.254Z,19.50
2018-04-23T11:53:25.710Z,19.70
2018-04-23T11:56:28.173Z,19.60
2018-04-23T11:59:31.386Z,19.40
2018-04-23T12:02:33.844Z,19.40
2018-04-23T12:05:37.063Z,19.40
2018-04-23T12:08:39.525Z,19.40
2018-04-23T12:11:41.969Z,19.40
2018-04-23T12:14:44.421Z,19.40
2018-04-23T12:17:46.886Z,19.30
2018-04-23T12:20:49.334Z,19.20
2018-04-23T12:23:51.793Z,19.20
2018-04-23T12:26:55.018Z,19.20
2018-04-23T12:29:57.465Z,19.20
2018-04-23T12:33:00.689Z,19.10
2018-04-23T12:36:03.149Z,19.10
2018-04-23T12:39:06.418Z,19.00
2018-04-23T12:42:09.647Z,19.00
2018-04-23T12:45:12.093Z,19.00
2018-04-23T12:48:15.314Z,19.00
2018-04-23T12:51:17.762Z,19.00
2018-04-23T12:54:20.987Z,19.10
2018-04-23T12:57:23.453Z,19.10
2018-04-23T13:00:25.897Z,19.00
2018-04-23T13:03:28.360Z,18.80
2018-04-23T13:06:30.805Z,18.70
2018-04-23T13:09:33.265Z,18.60
2018-04-23T13:12:35.725Z,18.70
2018-04-23T13:15:38.942Z,18.80
2018-04-23T13:18:41.398Z,18.80
2018-04-23T13:21:44.622Z,18.70
2018-04-23T13:24:47.071Z,18.70
2018-04-23T13:27:50.290Z,18.80
2018-04-23T13:30:52.741Z,18.80
2018-04-23T13:33:55.961Z,18.90
2018-04-23T13:36:58.416Z,18.80
2018-04-23T13:40:00.857Z,18.80
2018-04-23T13:43:03.314Z,18.80
2018-04-23T13:46:05.755Z,18.70
2018-04-23T13:49:08.206Z,18.70
2018-04-23T13:52:11.437Z,18.70
2018-04-23T13:55:13.878Z,18.70
2018-04-23T13:58:16.329Z,18.60
2018-04-23T14:01:18.778Z,18.70
2018-04-23T14:04:21.250Z,18.70
2018-04-23T14:07:23.709Z,18.60
2018-04-23T14:10:26.158Z,18.60
2018-04-23T14:13:29.382Z,18.50
2018-04-23T14:16:31.830Z,18.50
2018-04-23T14:19:34.291Z,18.50
2018-04-23T14:22:36.745Z,18.60
2018-04-23T14:25:39.189Z,18.70
2018-04-23T14:28:41.661Z,18.80
2018-04-23T14:31:44.109Z,18.60
2018-04-23T14:34:46.571Z,18.60
2018-04-23T14:37:49.030Z,18.60
2018-04-23T14:40:51.477Z,18.70
2018-04-23T14:43:53.934Z,18.70
2018-04-23T14:46:56.390Z,18.70
2018-04-23T14:49:58.853Z,18.60
2018-04-23T14:53:01.321Z,18.60
2018-04-23T14:56:03.774Z,18.70
2018-04-23T14:59:06.226Z,18.70
2018-04-23T15:02:08.678Z,18.60
2018-04-23T15:05:11.902Z,18.40
2018-04-23T15:08:14.362Z,18.40
2018-04-23T15:11:17.582Z,18.30
2018-04-23T15:14:20.038Z,18.20
2018-04-23T15:17:22.502Z,18.30
2018-04-23T15:20:24.957Z,18.10
2018-04-23T15:23:27.409Z,18.20
2018-04-23T15:26:29.861Z,18.10
2018-04-23T15:29:32.323Z,18.10
2018-04-23T15:32:34.775Z,18.10
2018-04-23T15:35:37.221Z,18.00
2018-04-23T15:38:39.681Z,17.90
2018-04-23T15:41:42.139Z,17.90
2018-04-23T15:44:44.596Z,17.90
2018-04-23T15:47:47.821Z,18.00
2018-04-23T15:50:50.273Z,18.00
2018-04-23T15:53:52.725Z,18.00
2018-04-23T15:56:55.981Z,18.00
2018-04-23T15:59:58.416Z,18.00
2018-04-23T16:03:01.635Z,17.80
2018-04-23T16:06:04.077Z,17.80
2018-04-23T16:09:07.302Z,17.70
2018-04-23T16:12:09.752Z,17.70
2018-04-23T16:15:12.982Z,17.60
2018-04-23T16:18:15.442Z,17.50
2018-04-23T16:21:17.891Z,17.50
2018-04-23T16:24:20.397Z,17.40
2018-04-23T16:27:22.845Z,17.40
2018-04-23T16:30:26.078Z,17.30
2018-04-23T16:33:28.526Z,17.30
2018-04-23T16:36:31.750Z,17.20
2018-04-23T16:39:34.217Z,17.20
2018-04-23T16:42:36.666Z,17.20
2018-04-23T16:45:39.896Z,17.00
2018-04-23T16:48:42.359Z,17.00
2018-04-23T16:51:44.810Z,17.00
2018-04-23T16:54:55.861Z,17.00
2018-04-23T16:57:58.337Z,16.90
2018-04-23T17:01:00.799Z,16.90
2018-04-23T17:04:03.249Z,16.90
2018-04-23T17:07:05.851Z,16.80
2018-04-23T17:10:08.493Z,16.80
2018-04-23T17:13:11.117Z,16.60
2018-04-23T17:16:13.671Z,16.60
2018-04-23T17:19:16.227Z,16.50
2018-04-23T17:22:20.574Z,16.40
2018-04-23T17:25:23.188Z,16.30
2018-04-23T17:28:25.645Z,16.30
2018-04-23T17:31:28.094Z,16.20
2018-04-23T17:34:30.549Z,16.20
2018-04-23T17:37:32.991Z,16.20
2018-04-23T17:40:35.450Z,16.10
2018-04-23T17:43:37.905Z,16.00
2018-04-23T17:46:40.358Z,16.00
2018-04-23T17:49:46.719Z,15.90
2018-04-23T17:52:49.959Z,15.70
2018-04-23T17:55:52.394Z,15.70
2018-04-23T17:58:55.617Z,15.60
2018-04-23T18:01:58.061Z,15.60
2018-04-23T18:05:00.522Z,15.60
2018-04-23T18:08:02.961Z,15.60
2018-04-23T18:11:05.457Z,15.50
2018-04-23T18:14:07.889Z,15.40
2018-04-23T18:17:10.339Z,15.30
2018-04-23T18:20:12.801Z,15.20
2018-04-23T18:23:15.253Z,15.10
2018-04-23T18:26:17.709Z,15.10
2018-04-23T18:29:20.165Z,15.00
2018-04-23T18:32:22.609Z,15.00
2018-04-23T18:35:25.075Z,15.00
2018-04-23T18:38:27.534Z,15.00
2018-04-23T18:41:29.990Z,15.00
2018-04-23T18:44:32.456Z,14.90
2018-04-23T18:47:34.910Z,14.90
2018-04-23T18:50:37.375Z,14.80
2018-04-23T18:53:39.828Z,14.80
2018-04-23T18:56:42.279Z,14.60
2018-04-23T18:59:44.747Z,14.50
2018-04-23T19:02:47.194Z,14.50
2018-04-23T19:05:50.440Z,14.50
2018-04-23T19:08:52.942Z,14.40
2018-04-23T19:11:55.335Z,14.50
2018-04-23T19:14:57.781Z,14.30
2018-04-23T19:18:00.234Z,14.30
2018-04-23T19:21:02.802Z,14.20
2018-04-23T19:24:05.250Z,14.20
2018-04-23T19:27:08.474Z,14.20
2018-04-23T19:30:10.933Z,14.20
2018-04-23T19:33:14.145Z,14.20
2018-04-23T19:36:16.597Z,14.20
2018-04-23T19:39:19.830Z,14.00
2018-04-23T19:42:22.274Z,14.00
2018-04-23T19:45:25.501Z,14.00
2018-04-23T19:48:27.949Z,13.90
2018-04-23T19:51:31.170Z,13.90
2018-04-23T19:54:33.638Z,13.90
2018-04-23T19:57:36.083Z,13.80
2018-04-23T20:00:39.303Z,13.80
2018-04-23T20:03:41.745Z,13.80
2018-04-23T20:06:44.266Z,13.80
2018-04-23T20:09:46.661Z,13.70
2018-04-23T20:12:49.114Z,13.60
2018-04-23T20:15:51.580Z,13.50
2018-04-23T20:18:54.025Z,13.40
2018-04-23T20:25:35.787Z,13.40
2018-04-23T20:28:38.257Z,13.30
2018-04-23T20:31:40.713Z,13.30
2018-04-23T20:34:43.938Z,13.30
2018-04-23T20:37:46.390Z,13.30
2018-04-23T20:40:48.841Z,13.10
2018-04-23T20:43:52.462Z,13.00
2018-04-23T20:46:55.678Z,13.00
2018-04-23T20:49:58.142Z,13.00
2018-04-23T20:53:00.587Z,12.90
2018-04-23T20:56:03.054Z,12.90
2018-04-23T20:59:05.514Z,12.90
2018-04-23T21:02:07.970Z,12.80
2018-04-23T21:05:10.429Z,12.80
2018-04-23T21:08:12.874Z,12.80
2018-04-23T21:11:16.107Z,12.70
2018-04-23T21:14:18.554Z,12.70
2018-04-23T21:17:21.005Z,12.60
2018-04-23T21:20:23.483Z,12.50
2018-04-23T21:23:26.003Z,12.50
2018-04-23T21:26:28.390Z,12.40
2018-04-23T21:29:30.845Z,12.40
2018-04-23T21:32:33.294Z,12.40
2018-04-23T21:35:35.758Z,12.40
2018-04-23T21:38:38.210Z,12.40
2018-04-23T21:41:40.666Z,12.30
2018-04-23T21:44:43.125Z,12.30
2018-04-23T21:47:46.341Z,12.20
2018-04-23T21:50:48.798Z,12.20
2018-04-23T21:53:52.292Z,12.10
2018-04-23T21:56:54.741Z,12.10
2018-04-23T21:59:57.197Z,12.00
2018-04-23T22:02:59.663Z,12.00
2018-04-23T22:06:02.119Z,11.90
2018-04-23T22:09:05.342Z,11.90
2018-04-23T22:12:07.799Z,11.80
2018-04-23T22:15:10.261Z,11.80
2018-04-23T22:18:12.725Z,11.80
2018-04-23T22:21:15.167Z,11.80
2018-04-23T22:24:17.618Z,11.70
2018-04-23T22:27:20.078Z,11.70
2018-04-23T22:30:22.539Z,11.70
2018-04-23T22:33:25.753Z,11.60
2018-04-23T22:36:28.218Z,11.60
2018-04-23T22:39:30.670Z,11.70
2018-04-23T22:42:33.139Z,11.60
2018-04-23T22:45:35.590Z,11.60
2018-04-23T22:48:38.054Z,11.60
2018-04-23T22:51:40.505Z,11.60
2018-04-23T22:54:42.958Z,11.60
2018-04-23T22:57:46.184Z,11.40
2018-04-23T23:00:48.638Z,11.40
2018-04-23T23:03:51.871Z,11.20
2018-04-23T23:06:54.318Z,11.10
2018-04-23T23:09:56.783Z,11.10
2018-04-23T23:12:59.990Z,11.00
2018-04-23T23:16:02.450Z,11.00
2018-04-23T23:19:05.833Z,11.00
2018-04-23T23:22:08.285Z,11.00
2018-04-23T23:25:10.753Z,11.00
2018-04-23T23:28:13.201Z,11.10
2018-04-23T23:31:15.657Z,11.00
2018-04-23T23:34:18.877Z,11.10
2018-04-23T23:37:21.338Z,11.10
2018-04-23T23:40:23.797Z,11.10
2018-04-23T23:43:27.020Z,10.90
2018-04-23T23:46:29.477Z,10.90
2018-04-23T23:49:32.730Z,10.70
2018-04-23T23:52:35.149Z,10.70
2018-04-23T23:55:38.378Z,10.60
2018-04-23T23:58:40.829Z,10.60
